DAL199 KATL-FAOR
Flight info
| Callsign | DAL199 |
|---|---|
| Flight time | N/A |
| Altitude | 33000 |
| Route | GAIRY2 IRQ DCT DEDDY Y436 JAINS/M085F330 L435 FIVZE/M085F350 L435 BUTUX/N0501F350 UL435 IRELA/N0493F370 UL435 BUVUK DCT 00N020W 07S010W/N0485F390 11S005W 14S000E 16S005E DCT GUBAG/N0479F410 DCT IBNEV UL435 ETOSA UZ10 PEDIL UQ19 AVAGO AVAGO1D |
| Aircraft | A359/H-V/N |
Departure
| Time | 2026-05-07 23:31 |
|---|---|
| Airport | Hartsfield Jackson Atlanta International Airport (KATL) |
Arrival
| Time | N/A |
|---|---|
| Airport | O.R. Tambo International Airport (FAOR) |
| Time | Latitude | Longitude | Altitude | Speed | Heading |
|---|---|---|---|---|---|
| 2026-05-07 22:47 | 33.63988 | -84.42050 | 1042 ft | 0 kts | 88° |
| 2026-05-07 22:49 | 33.63988 | -84.42051 | 1042 ft | 0 kts | 88° |
| 2026-05-07 23:16 | 33.63989 | -84.42042 | 1042 ft | 0 kts | 88° |
| 2026-05-07 23:17 | 33.63988 | -84.42065 | 1042 ft | 4 kts | 88° |
| 2026-05-07 23:17 | 33.63988 | -84.42095 | 1042 ft | 4 kts | 93° |
| 2026-05-07 23:17 | 33.63992 | -84.42125 | 1042 ft | 4 kts | 112° |
| 2026-05-07 23:17 | 33.64004 | -84.42150 | 1044 ft | 13 kts | 141° |
| 2026-05-07 23:18 | 33.64024 | -84.42162 | 1013 ft | 5 kts | 179° |
| 2026-05-07 23:18 | 33.64026 | -84.42168 | 1018 ft | 0 kts | 179° |
| 2026-05-07 23:19 | 33.63907 | -84.42160 | 1041 ft | 0 kts | 178° |
| 2026-05-07 23:22 | 33.63867 | -84.42159 | 1041 ft | 8 kts | 180° |
| 2026-05-07 23:22 | 33.63809 | -84.42160 | 1041 ft | 8 kts | 181° |
| 2026-05-07 23:22 | 33.63756 | -84.42160 | 1042 ft | 7 kts | 180° |
| 2026-05-07 23:22 | 33.63708 | -84.42159 | 1042 ft | 7 kts | 178° |
| 2026-05-07 23:23 | 33.63670 | -84.42140 | 1042 ft | 5 kts | 137° |
| 2026-05-07 23:23 | 33.63659 | -84.42105 | 1042 ft | 5 kts | 100° |
| 2026-05-07 23:23 | 33.63656 | -84.42049 | 1042 ft | 9 kts | 91° |
| 2026-05-07 23:23 | 33.63656 | -84.41961 | 1041 ft | 12 kts | 90° |
| 2026-05-07 23:24 | 33.63656 | -84.41845 | 1041 ft | 15 kts | 90° |
| 2026-05-07 23:24 | 33.63657 | -84.41724 | 1041 ft | 14 kts | 90° |
| 2026-05-07 23:24 | 33.63656 | -84.41607 | 1041 ft | 14 kts | 90° |
| 2026-05-07 23:24 | 33.63656 | -84.41494 | 1041 ft | 13 kts | 90° |
| 2026-05-07 23:25 | 33.63656 | -84.41383 | 1041 ft | 13 kts | 90° |
| 2026-05-07 23:25 | 33.63656 | -84.41277 | 1041 ft | 12 kts | 90° |
| 2026-05-07 23:25 | 33.63656 | -84.41176 | 1041 ft | 12 kts | 90° |
| 2026-05-07 23:25 | 33.63656 | -84.41080 | 1041 ft | 11 kts | 90° |
| 2026-05-07 23:26 | 33.63656 | -84.40977 | 1041 ft | 13 kts | 89° |
| 2026-05-07 23:26 | 33.63657 | -84.40867 | 1041 ft | 13 kts | 89° |
| 2026-05-07 23:26 | 33.63642 | -84.40769 | 1042 ft | 11 kts | 129° |
| 2026-05-07 23:26 | 33.63591 | -84.40750 | 1042 ft | 0 kts | 175° |
| 2026-05-07 23:27 | 33.63569 | -84.40749 | 1042 ft | 8 kts | 178° |
| 2026-05-07 23:28 | 33.63510 | -84.40748 | 1042 ft | 8 kts | 187° |
| 2026-05-07 23:28 | 33.63477 | -84.40789 | 1042 ft | 7 kts | 252° |
| 2026-05-07 23:28 | 33.63472 | -84.40839 | 1042 ft | 6 kts | 269° |
| 2026-05-07 23:28 | 33.63472 | -84.40881 | 1042 ft | 1 kts | 269° |
| 2026-05-07 23:30 | 33.63472 | -84.40882 | 1042 ft | 3 kts | 269° |
| 2026-05-07 23:30 | 33.63472 | -84.41159 | 1040 ft | 68 kts | 270° |
| 2026-05-07 23:30 | 33.63471 | -84.41989 | 1042 ft | 130 kts | 270° |
| 2026-05-07 23:31 | 33.63471 | -84.43294 | 1080 ft | 178 kts | 275° |
| 2026-05-07 23:31 | 33.63481 | -84.44717 | 1899 ft | 164 kts | 273° |
| 2026-05-07 23:31 | 33.63453 | -84.46103 | 2502 ft | 176 kts | 269° |
| 2026-05-07 23:31 | 33.63227 | -84.47631 | 2760 ft | 193 kts | 257° |
| 2026-05-07 23:32 | 33.62767 | -84.49207 | 2978 ft | 208 kts | 250° |
| 2026-05-07 23:32 | 33.62110 | -84.50844 | 3128 ft | 226 kts | 245° |
| 2026-05-07 23:32 | 33.61360 | -84.52565 | 3372 ft | 240 kts | 245° |
| 2026-05-07 23:32 | 33.60572 | -84.54381 | 3688 ft | 249 kts | 246° |
| 2026-05-07 23:33 | 33.59721 | -84.56220 | 4133 ft | 255 kts | 239° |
| 2026-05-07 23:33 | 33.58458 | -84.57738 | 4616 ft | 263 kts | 216° |
| 2026-05-07 23:33 | 33.56715 | -84.58466 | 5132 ft | 271 kts | 190° |
| 2026-05-07 23:33 | 33.54826 | -84.58544 | 5724 ft | 272 kts | 185° |
| 2026-05-07 23:34 | 33.52924 | -84.58517 | 6222 ft | 275 kts | 185° |
| 2026-05-07 23:34 | 33.50998 | -84.58492 | 6655 ft | 279 kts | 185° |
| 2026-05-07 23:34 | 33.49044 | -84.58335 | 7134 ft | 288 kts | 174° |
| 2026-05-07 23:34 | 33.47182 | -84.57359 | 7635 ft | 302 kts | 147° |
| 2026-05-07 23:35 | 33.45856 | -84.55357 | 8053 ft | 317 kts | 114° |
| 2026-05-07 23:35 | 33.45475 | -84.52760 | 8521 ft | 321 kts | 87° |
| 2026-05-07 23:35 | 33.45541 | -84.50064 | 8980 ft | 327 kts | 88° |
| 2026-05-07 23:35 | 33.45587 | -84.47329 | 9458 ft | 331 kts | 89° |
| 2026-05-07 23:36 | 33.45607 | -84.44563 | 9932 ft | 334 kts | 89° |
| 2026-05-07 23:36 | 33.45610 | -84.41738 | 10216 ft | 345 kts | 89° |
| 2026-05-07 23:36 | 33.45605 | -84.38810 | 10400 ft | 359 kts | 89° |
| 2026-05-07 23:36 | 33.45593 | -84.35767 | 10640 ft | 372 kts | 89° |
| 2026-05-07 23:37 | 33.45665 | -84.32615 | 10836 ft | 385 kts | 84° |
| 2026-05-07 23:37 | 33.45902 | -84.29372 | 11034 ft | 397 kts | 83° |
| 2026-05-07 23:37 | 33.46178 | -84.26030 | 11196 ft | 410 kts | 82° |
| 2026-05-07 23:37 | 33.46460 | -84.22583 | 11379 ft | 422 kts | 83° |
| 2026-05-07 23:38 | 33.46746 | -84.19040 | 11583 ft | 432 kts | 83° |
| 2026-05-07 23:38 | 33.47034 | -84.15431 | 11882 ft | 439 kts | 83° |
| 2026-05-07 23:38 | 33.47324 | -84.11770 | 12196 ft | 444 kts | 83° |
| 2026-05-07 23:38 | 33.47615 | -84.08066 | 12529 ft | 449 kts | 82° |
| 2026-05-07 23:39 | 33.47908 | -84.04317 | 12842 ft | 454 kts | 82° |
| 2026-05-07 23:39 | 33.48202 | -84.00530 | 13199 ft | 459 kts | 82° |
| 2026-05-07 23:39 | 33.48499 | -83.96705 | 13536 ft | 464 kts | 82° |
| 2026-05-07 23:39 | 33.48798 | -83.92840 | 13852 ft | 468 kts | 82° |
| 2026-05-07 23:40 | 33.49097 | -83.88944 | 14171 ft | 471 kts | 83° |
| 2026-05-07 23:40 | 33.49396 | -83.85031 | 14539 ft | 473 kts | 83° |
| 2026-05-07 23:40 | 33.49692 | -83.81146 | 14869 ft | 476 kts | 83° |
| 2026-05-07 23:40 | 33.49993 | -83.77186 | 15205 ft | 479 kts | 83° |
| 2026-05-07 23:41 | 33.50293 | -83.73208 | 15543 ft | 481 kts | 83° |
| 2026-05-07 23:41 | 33.50595 | -83.69201 | 15861 ft | 484 kts | 83° |
| 2026-05-07 23:41 | 33.50896 | -83.65175 | 16167 ft | 487 kts | 83° |
| 2026-05-07 23:41 | 33.51244 | -83.61132 | 16473 ft | 489 kts | 79° |
| 2026-05-07 23:42 | 33.51812 | -83.57111 | 16810 ft | 491 kts | 77° |
| 2026-05-07 23:42 | 33.52422 | -83.53078 | 17111 ft | 494 kts | 78° |
| 2026-05-07 23:42 | 33.53021 | -83.49009 | 17405 ft | 497 kts | 78° |
| 2026-05-07 23:42 | 33.53609 | -83.44912 | 17710 ft | 500 kts | 78° |
| 2026-05-07 23:43 | 33.54189 | -83.40792 | 18016 ft | 503 kts | 79° |
| 2026-05-07 23:43 | 33.54766 | -83.36644 | 18297 ft | 506 kts | 79° |
| 2026-05-07 23:43 | 33.55344 | -83.32466 | 18581 ft | 509 kts | 79° |
| 2026-05-07 23:43 | 33.55920 | -83.28279 | 18883 ft | 510 kts | 79° |
| 2026-05-07 23:44 | 33.56495 | -83.24078 | 19194 ft | 512 kts | 79° |
| 2026-05-07 23:44 | 33.57071 | -83.19859 | 19502 ft | 513 kts | 79° |
| 2026-05-07 23:44 | 33.57648 | -83.15625 | 19796 ft | 515 kts | 79° |
| 2026-05-07 23:44 | 33.58225 | -83.11373 | 20092 ft | 518 kts | 79° |
| 2026-05-07 23:45 | 33.58802 | -83.07106 | 20399 ft | 520 kts | 79° |
| 2026-05-07 23:45 | 33.59381 | -83.02823 | 20703 ft | 521 kts | 79° |
| 2026-05-07 23:45 | 33.59960 | -82.98519 | 20996 ft | 523 kts | 79° |
| 2026-05-07 23:45 | 33.60539 | -82.94207 | 21297 ft | 525 kts | 79° |
| 2026-05-07 23:46 | 33.61120 | -82.89871 | 21583 ft | 527 kts | 79° |
| 2026-05-07 23:46 | 33.61701 | -82.85523 | 21888 ft | 529 kts | 79° |
| 2026-05-07 23:46 | 33.62282 | -82.81158 | 22179 ft | 531 kts | 79° |
| 2026-05-07 23:46 | 33.62863 | -82.76776 | 22463 ft | 533 kts | 79° |
| 2026-05-07 23:47 | 33.63446 | -82.72379 | 22748 ft | 535 kts | 79° |
| 2026-05-07 23:47 | 33.64029 | -82.67962 | 23052 ft | 537 kts | 79° |
| 2026-05-07 23:47 | 33.64416 | -82.65027 | 23264 ft | 538 kts | 79° |
| 2026-05-07 23:47 | 33.65000 | -82.60583 | 23541 ft | 540 kts | 79° |
| 2026-05-07 23:48 | 33.65782 | -82.54610 | 23861 ft | 543 kts | 79° |
| 2026-05-07 23:48 | 33.66170 | -82.51639 | 24019 ft | 545 kts | 79° |
| 2026-05-07 23:48 | 33.66757 | -82.47138 | 24219 ft | 547 kts | 79° |
| 2026-05-07 23:48 | 33.67344 | -82.42619 | 24464 ft | 549 kts | 79° |
| 2026-05-07 23:49 | 33.67932 | -82.38078 | 24692 ft | 552 kts | 79° |
| 2026-05-07 23:49 | 33.68522 | -82.33516 | 24942 ft | 554 kts | 79° |
| 2026-05-07 23:49 | 33.69302 | -82.27448 | 25279 ft | 557 kts | 80° |
| 2026-05-07 23:49 | 33.69875 | -82.22841 | 25525 ft | 559 kts | 82° |
| 2026-05-07 23:50 | 33.70076 | -82.19690 | 25668 ft | 562 kts | 89° |
| 2026-05-07 23:50 | 33.69752 | -82.15026 | 25902 ft | 561 kts | 104° |
| 2026-05-07 23:50 | 33.68658 | -82.10550 | 26161 ft | 557 kts | 115° |
| 2026-05-07 23:50 | 33.67216 | -82.06235 | 26419 ft | 557 kts | 118° |
| 2026-05-07 23:51 | 33.65644 | -82.01976 | 26668 ft | 559 kts | 119° |
| 2026-05-07 23:51 | 33.64015 | -81.97737 | 26925 ft | 560 kts | 120° |
| 2026-05-07 23:51 | 33.62370 | -81.93489 | 27172 ft | 563 kts | 120° |
| 2026-05-07 23:51 | 33.60748 | -81.89280 | 27408 ft | 565 kts | 120° |
| 2026-05-07 23:52 | 33.59090 | -81.84930 | 27662 ft | 567 kts | 119° |
| 2026-05-07 23:52 | 33.57457 | -81.80610 | 27891 ft | 569 kts | 119° |
| 2026-05-07 23:52 | 33.55828 | -81.76278 | 28123 ft | 572 kts | 119° |
| 2026-05-07 23:52 | 33.54194 | -81.71924 | 28350 ft | 574 kts | 119° |
| 2026-05-07 23:53 | 33.52556 | -81.67560 | 28585 ft | 576 kts | 119° |
| 2026-05-07 23:53 | 33.50910 | -81.63179 | 28832 ft | 576 kts | 119° |
| 2026-05-07 23:53 | 33.49284 | -81.58857 | 29080 ft | 577 kts | 119° |
| 2026-05-07 23:53 | 33.47629 | -81.54468 | 29280 ft | 579 kts | 119° |
| 2026-05-07 23:54 | 33.45966 | -81.50064 | 29442 ft | 581 kts | 119° |
| 2026-05-07 23:54 | 33.44294 | -81.45648 | 29627 ft | 583 kts | 119° |
| 2026-05-07 23:54 | 33.42615 | -81.41216 | 29813 ft | 585 kts | 119° |
| 2026-05-07 23:54 | 33.40931 | -81.36779 | 30000 ft | 587 kts | 119° |
| 2026-05-07 23:55 | 33.39239 | -81.32326 | 30152 ft | 588 kts | 119° |
| 2026-05-07 23:55 | 33.37543 | -81.27869 | 30295 ft | 589 kts | 119° |
| 2026-05-07 23:55 | 33.35851 | -81.23424 | 30565 ft | 587 kts | 119° |
| 2026-05-07 23:55 | 33.34157 | -81.18980 | 30749 ft | 587 kts | 119° |
| 2026-05-07 23:56 | 33.32460 | -81.14535 | 30941 ft | 588 kts | 119° |
| 2026-05-07 23:56 | 33.30761 | -81.10093 | 31130 ft | 588 kts | 120° |
| 2026-05-07 23:56 | 33.29061 | -81.05653 | 31312 ft | 588 kts | 120° |
| 2026-05-07 23:56 | 33.27357 | -81.01210 | 31487 ft | 588 kts | 120° |
| 2026-05-07 23:57 | 33.25653 | -80.96772 | 31675 ft | 588 kts | 120° |
| 2026-05-07 23:57 | 33.23946 | -80.92332 | 31844 ft | 588 kts | 120° |
| 2026-05-07 23:57 | 33.22238 | -80.87896 | 32011 ft | 588 kts | 120° |
| 2026-05-07 23:57 | 33.20527 | -80.83458 | 32159 ft | 589 kts | 120° |
| 2026-05-07 23:58 | 33.18814 | -80.79021 | 32342 ft | 589 kts | 120° |
| 2026-05-07 23:58 | 33.17097 | -80.74577 | 32498 ft | 589 kts | 120° |
| 2026-05-07 23:58 | 33.15379 | -80.70140 | 32676 ft | 589 kts | 120° |
| 2026-05-07 23:58 | 33.13662 | -80.65708 | 32835 ft | 589 kts | 120° |
| 2026-05-07 23:59 | 33.10204 | -80.56807 | 32892 ft | 594 kts | 120° |
| 2026-05-07 23:59 | 33.06715 | -80.47848 | 32887 ft | 595 kts | 120° |
| 2026-05-08 00:00 | 33.03228 | -80.38902 | 32913 ft | 595 kts | 120° |
| 2026-05-08 00:00 | 32.99734 | -80.29970 | 32894 ft | 595 kts | 120° |
| 2026-05-08 00:01 | 32.96253 | -80.21101 | 32894 ft | 595 kts | 120° |
| 2026-05-08 00:01 | 32.92721 | -80.12126 | 32889 ft | 594 kts | 120° |
| 2026-05-08 00:02 | 32.89219 | -80.03243 | 32907 ft | 592 kts | 120° |
| 2026-05-08 00:02 | 32.85982 | -79.94197 | 32892 ft | 596 kts | 116° |
| 2026-05-08 00:03 | 32.83000 | -79.85007 | 32892 ft | 596 kts | 116° |
| 2026-05-08 00:03 | 32.80006 | -79.75890 | 32899 ft | 595 kts | 116° |
| 2026-05-08 00:04 | 32.76911 | -79.66710 | 32894 ft | 594 kts | 116° |
| 2026-05-08 00:04 | 32.73827 | -79.57676 | 32894 ft | 594 kts | 116° |
| 2026-05-08 00:05 | 32.70826 | -79.48532 | 32885 ft | 595 kts | 114° |
| 2026-05-08 00:05 | 32.67959 | -79.39313 | 32895 ft | 595 kts | 114° |
| 2026-05-08 00:06 | 32.65091 | -79.30121 | 32896 ft | 594 kts | 114° |
| 2026-05-08 00:06 | 32.62189 | -79.20957 | 32900 ft | 593 kts | 115° |
| 2026-05-08 00:07 | 32.59267 | -79.11804 | 32896 ft | 593 kts | 115° |
| 2026-05-08 00:07 | 32.56339 | -79.02662 | 32895 ft | 592 kts | 115° |
| 2026-05-08 00:08 | 32.53422 | -78.93571 | 32903 ft | 589 kts | 115° |
| 2026-05-08 00:08 | 32.50505 | -78.84508 | 32903 ft | 589 kts | 115° |
| 2026-05-08 00:09 | 32.47578 | -78.75452 | 32903 ft | 589 kts | 115° |
| 2026-05-08 00:09 | 32.44649 | -78.66402 | 32897 ft | 588 kts | 115° |
| 2026-05-08 00:10 | 32.41722 | -78.57376 | 32908 ft | 586 kts | 115° |
| 2026-05-08 00:10 | 32.38794 | -78.48376 | 32908 ft | 586 kts | 115° |
| 2026-05-08 00:11 | 32.35858 | -78.39382 | 32911 ft | 586 kts | 115° |
| 2026-05-08 00:11 | 32.32918 | -78.30402 | 32911 ft | 585 kts | 115° |
| 2026-05-08 00:12 | 32.30001 | -78.21497 | 32910 ft | 584 kts | 115° |
| 2026-05-08 00:12 | 32.27060 | -78.12544 | 32914 ft | 584 kts | 115° |
| 2026-05-08 00:13 | 32.24092 | -78.03534 | 32914 ft | 585 kts | 115° |
| 2026-05-08 00:13 | 32.21151 | -77.94657 | 32900 ft | 584 kts | 115° |
| 2026-05-08 00:14 | 32.19363 | -77.90318 | 32913 ft | 576 kts | 126° |
| 2026-05-08 00:14 | 32.17107 | -77.86549 | 32918 ft | 564 kts | 137° |
| 2026-05-08 00:14 | 32.11612 | -77.80071 | 32925 ft | 557 kts | 144° |
| 2026-05-08 00:15 | 32.05864 | -77.73970 | 32926 ft | 556 kts | 146° |
| 2026-05-08 00:15 | 32.00088 | -77.67922 | 32908 ft | 555 kts | 145° |
| 2026-05-08 00:16 | 31.94330 | -77.61844 | 32938 ft | 556 kts | 145° |
| 2026-05-08 00:16 | 31.88583 | -77.55757 | 32934 ft | 556 kts | 144° |
| 2026-05-08 00:17 | 31.82829 | -77.49664 | 32937 ft | 557 kts | 144° |
| 2026-05-08 00:17 | 31.77072 | -77.43578 | 32941 ft | 557 kts | 144° |
| 2026-05-08 00:18 | 31.71311 | -77.37500 | 32917 ft | 556 kts | 144° |
| 2026-05-08 00:18 | 31.65553 | -77.31437 | 32949 ft | 556 kts | 144° |
| 2026-05-08 00:19 | 31.59788 | -77.25383 | 32949 ft | 556 kts | 144° |
| 2026-05-08 00:19 | 31.54033 | -77.19353 | 33935 ft | 553 kts | 139° |
| 2026-05-08 00:20 | 31.51177 | -77.16363 | 32850 ft | 544 kts | 139° |
| 2026-05-08 00:20 | 31.48417 | -77.13348 | 32954 ft | 542 kts | 138° |
| 2026-05-08 00:20 | 31.43173 | -77.08034 | 31213 ft | 1 kts | 172° |
| 2026-05-08 00:21 | 31.43062 | -77.07975 | 27585 ft | 59 kts | 182° |
| 2026-05-08 00:21 | 31.42668 | -77.08097 | 18674 ft | 66 kts | 314° |
| 2026-05-08 00:21 | 31.44376 | -77.08388 | 12644 ft | 392 kts | 347° |
| 2026-05-08 00:21 | 31.46754 | -77.08577 | 14756 ft | 317 kts | 349° |
| 2026-05-08 00:22 | 31.48984 | -77.08720 | 13621 ft | 335 kts | 348° |
| 2026-05-08 00:22 | 31.51486 | -77.08952 | 11003 ft | 388 kts | 348° |
| 2026-05-08 00:22 | 31.54383 | -77.09162 | 9674 ft | 415 kts | 352° |
| 2026-05-08 00:22 | 31.55887 | -77.09177 | 12394 ft | 0 kts | 349° |
| 2026-05-08 00:23 | 31.55999 | -77.09118 | 9646 ft | 60 kts | 342° |
| 2026-05-08 00:23 | 31.57248 | -77.08444 | 1798 ft | 375 kts | 24° |
| 2026-05-08 00:23 | 31.59058 | -77.07259 | 4471 ft | 1 kts | 32° |
| 2026-05-08 00:23 | 31.59062 | -77.07256 | 4360 ft | 6 kts | 29° |
| 2026-05-08 00:24 | 31.59176 | -77.07168 | 2395 ft | 83 kts | 26° |
| 2026-05-08 00:24 | 31.59236 | -77.06664 | 11 ft | 34 kts | 243° |
| 2026-05-08 00:24 | 31.59106 | -77.06586 | 13 ft | 1 kts | 243° |
| 2026-05-08 00:24 | 31.59105 | -77.06585 | 13 ft | 0 kts | 241° |